Time;durP1;ratioP1;P1;durP2;ratioP2;P2;SDS_P1;SDS_P2;PMS_P1;PMS_P2;Temp;Humidity;BMP_temperature;BMP_pressure;BME280_temperature;BME280_humidity;BME280_pressure;Samples;Min_cycle;Max_cycle;Signal;HPM_P1;HPM_P2
2022/07/01 00:01:29;;;;;;;;;;;;;;;;;;4884440;29;19965;-59
2022/07/01 00:03:57;;;;;;;;;;;;;;;;;;4886718;29;21036;-59
2022/07/01 00:06:22;;;;;;;;;;;;;;;;;;4879561;29;19970;-59
2022/07/01 00:08:50;;;;;;;;;;;;;;;;;;4887302;29;20014;-60
2022/07/01 00:11:16;;;;;;;;;;;;;;;;;;4915452;28;20041;-58
2022/07/01 00:13:43;;;;;;;;;;;;;;;;;;4887773;29;19983;-58
2022/07/01 00:16:09;;;;;;;;;;;;;;;;;;4882677;29;20034;-59
2022/07/01 00:18:34;;;;;;;;;;;;;;;;;;4873429;29;21271;-59
2022/07/01 00:21:02;;;;;;;;;;;;;;;;;;4913562;28;19926;-58
2022/07/01 00:23:27;;;;;;;;;;;;;;;;;;4898626;29;19927;-58
2022/07/01 00:25:55;;;;;;;;;;;;;;;;;;4914652;28;19927;-59
2022/07/01 00:28:22;;;;;;;;;;;;;;;;;;4883057;29;20213;-59
2022/07/01 00:30:47;;;;;;;;;;;;;;;;;;4883450;29;20514;-59
2022/07/01 00:33:17;;;;;;;;;;;;;;;;;;4884733;29;19998;-60
2022/07/01 00:35:43;;;;;;;;;;;;;;;;;;4913662;28;19979;-59
2022/07/01 00:38:10;;;;;;;;;;;;;;;;;;4879901;29;19985;-60
2022/07/01 00:40:36;;;;;;;;;;;;;;;;;;4885937;29;19923;-59
2022/07/01 00:43:06;;;;;;;;;;;;;;;;;;4885600;29;19928;-59
2022/07/01 00:45:31;;;;;;;;;;;;;;;;;;4877597;29;19927;-59
2022/07/01 00:47:56;;;;;;;;;;;;;;;;;;4887244;29;19923;-58
2022/07/01 00:50:22;;;;;;;;;;;;;;;;;;4883089;29;20511;-59
2022/07/01 00:52:47;;;;;;;;;;;;;;;;;;4884107;29;19978;-59
2022/07/01 00:55:15;;;;;;;;;;;;;;;;;;4886054;29;19926;-59
2022/07/01 00:57:43;;;;;;;;;;;;;;;;;;4914701;28;19927;-59
2022/07/01 01:00:09;;;;;;;;;;;;;;;;;;4877375;29;20046;-59
2022/07/01 01:02:34;;;;;;;;;;;;;;;;;;4883961;29;19922;-58
2022/07/01 01:05:00;;;;;;;;;;;;;;;;;;4910961;28;19919;-59
2022/07/01 01:07:28;;;;;;;;;;;;;;;;;;4882224;28;20479;-59
2022/07/01 01:09:56;;;;;;;;;;;;;;;;;;4887861;29;20248;-59
2022/07/01 01:12:23;;;;;;;;;;;;;;;;;;4887158;29;20355;-58
2022/07/01 01:14:49;;;;;;;;;;;;;;;;;;4879090;29;19919;-59
2022/07/01 01:17:14;;;;;;;;;;;;;;;;;;4910446;28;19978;-59
2022/07/01 01:19:39;;;;;;;;;;;;;;;;;;4878428;29;20636;-58
2022/07/01 01:22:08;;;;;;;;;;;;;;;;;;4914660;28;19919;-58
2022/07/01 01:24:33;;;;;;;;;;;;;;;;;;4884450;29;21475;-58
2022/07/01 01:27:01;;;;;;;;;;;;;;;;;;4914090;28;20010;-59
2022/07/01 01:29:27;;;;;;;;;;;;;;;;;;4884490;29;19933;-58
2022/07/01 01:31:54;;;;;;;;;;;;;;;;;;4884397;29;19934;-59
2022/07/01 01:34:20;;;;;;;;;;;;;;;;;;4914708;28;19926;-59
2022/07/01 01:36:45;;;;;;;;;;;;;;;;;;4880111;29;19924;-59
2022/07/01 01:39:19;;;;;;;;;;;;;;;;;;4915592;28;20025;-58
2022/07/01 01:41:44;;;;;;;;;;;;;;;;;;4881013;29;19923;-59
2022/07/01 01:44:10;;;;;;;;;;;;;;;;;;4879467;29;19973;-58
2022/07/01 01:46:36;;;;;;;;;;;;;;;;;;4878997;29;19930;-59
2022/07/01 01:49:06;;;;;;;;;;;;;;;;;;4878298;29;21006;-59
2022/07/01 01:51:31;;;;;;;;;;;;;;;;;;4879114;29;19942;-59
2022/07/01 01:54:12;;;;;;;;;;;;;;;;;;4887125;29;20296;-59
2022/07/01 01:56:37;;;;;;;;;;;;;;;;;;4894016;29;19927;-59
2022/07/01 01:59:06;;;;;;;;;;;;;;;;;;4883847;29;19966;-59
2022/07/01 02:01:34;;;;;;;;;;;;;;;;;;4882359;29;20290;-58
2022/07/01 02:03:59;;;;;;;;;;;;;;;;;;4913238;28;19923;-58
2022/07/01 02:06:25;;;;;;;;;;;;;;;;;;4878741;29;19919;-59
2022/07/01 02:08:52;;;;;;;;;;;;;;;;;;4883755;29;19927;-58
2022/07/01 02:11:20;;;;;;;;;;;;;;;;;;4879724;29;19934;-58
2022/07/01 02:13:45;;;;;;;;;;;;;;;;;;4881038;29;19974;-60
2022/07/01 02:16:11;;;;;;;;;;;;;;;;;;4912665;28;19939;-59
2022/07/01 02:18:36;;;;;;;;;;;;;;;;;;4914711;28;20094;-59
2022/07/01 02:21:02;;;;;;;;;;;;;;;;;;4883627;29;20021;-59
2022/07/01 02:23:29;;;;;;;;;;;;;;;;;;4913568;28;20474;-60
2022/07/01 02:25:56;;;;;;;;;;;;;;;;;;4884723;29;20885;-59
2022/07/01 02:28:24;;;;;;;;;;;;;;;;;;4882919;29;20455;-59
2022/07/01 02:30:49;;;;;;;;;;;;;;;;;;4914813;28;20074;-59
2022/07/01 02:33:15;;;;;;;;;;;;;;;;;;4883998;29;19923;-59
2022/07/01 02:35:42;;;;;;;;;;;;;;;;;;4884615;29;19927;-59
2022/07/01 02:38:08;;;;;;;;;;;;;;;;;;4898397;29;19963;-59
2022/07/01 02:40:39;;;;;;;;;;;;;;;;;;4876180;29;20010;-59
2022/07/01 02:43:05;;;;;;;;;;;;;;;;;;4887125;29;20061;-59
2022/07/01 02:45:34;;;;;;;;;;;;;;;;;;4883638;29;20685;-59
2022/07/01 02:48:02;;;;;;;;;;;;;;;;;;4882865;29;19974;-59
2022/07/01 02:50:27;;;;;;;;;;;;;;;;;;4882448;29;19941;-59
2022/07/01 02:52:52;;;;;;;;;;;;;;;;;;4895494;29;19927;-59
2022/07/01 02:55:20;;;;;;;;;;;;;;;;;;4881867;29;21149;-60
2022/07/01 02:57:53;;;;;;;;;;;;;;;;;;4914473;28;20496;-60
2022/07/01 03:00:23;;;;;;;;;;;;;;;;;;4910654;28;19919;-59
2022/07/01 03:02:51;;;;;;;;;;;;;;;;;;4911636;28;20865;-59
2022/07/01 03:05:19;;;;;;;;;;;;;;;;;;4897530;29;19923;-59
2022/07/01 03:07:44;;;;;;;;;;;;;;;;;;4881975;29;20013;-59
2022/07/01 03:10:12;;;;;;;;;;;;;;;;;;4912193;28;19927;-59
2022/07/01 03:12:40;;;;;;;;;;;;;;;;;;4886856;29;20614;-58
2022/07/01 03:15:08;;;;;;;;;;;;;;;;;;4884311;29;20013;-59
2022/07/01 03:17:34;;;;;;;;;;;;;;;;;;4887930;29;21271;-58
2022/07/01 03:20:15;;;;;;;;;;;;;;;;;;4885640;29;19931;-58
2022/07/01 03:22:43;;;;;;;;;;;;;;;;;;4917706;28;19927;-59
2022/07/01 03:25:08;;;;;;;;;;;;;;;;;;4914559;28;19923;-60
2022/07/01 03:27:33;;;;;;;;;;;;;;;;;;4886061;29;19959;-60
2022/07/01 03:29:59;;;;;;;;;;;;;;;;;;4883346;29;21098;-59
2022/07/01 03:32:27;;;;;;;;;;;;;;;;;;4915396;28;19919;-59
2022/07/01 03:34:52;;;;;;;;;;;;;;;;;;4888074;29;19931;-59
2022/07/01 03:37:17;;;;;;;;;;;;;;;;;;4885256;29;20300;-59
2022/07/01 03:39:45;;;;;;;;;;;;;;;;;;4888041;29;19923;-59
2022/07/01 03:42:11;;;;;;;;;;;;;;;;;;4895455;29;19938;-60
2022/07/01 03:44:39;;;;;;;;;;;;;;;;;;4887751;29;20013;-59
2022/07/01 03:47:05;;;;;;;;;;;;;;;;;;4887332;29;19985;-58
2022/07/01 03:49:31;;;;;;;;;;;;;;;;;;4885523;29;19962;-59
2022/07/01 03:51:59;;;;;;;;;;;;;;;;;;4882624;29;20016;-58
2022/07/01 03:54:30;;;;;;;;;;;;;;;;;;4885040;29;20510;-58
2022/07/01 03:56:57;;;;;;;;;;;;;;;;;;4893911;29;20988;-60
2022/07/01 03:59:23;;;;;;;;;;;;;;;;;;4885419;29;19930;-59
2022/07/01 04:01:51;;;;;;;;;;;;;;;;;;4916693;28;20544;-59
2022/07/01 04:04:19;;;;;;;;;;;;;;;;;;4891060;29;19953;-59
2022/07/01 04:06:44;;;;;;;;;;;;;;;;;;4885348;29;19978;-60
2022/07/01 04:09:10;;;;;;;;;;;;;;;;;;4889675;29;20014;-58
2022/07/01 04:11:37;;;;;;;;;;;;;;;;;;4892303;29;20060;-58
2022/07/01 04:14:02;;;;;;;;;;;;;;;;;;4886542;29;21917;-58
2022/07/01 04:16:28;;;;;;;;;;;;;;;;;;4884620;29;19923;-60
2022/07/01 04:18:54;;;;;;;;;;;;;;;;;;4886949;29;19945;-58
2022/07/01 04:24:03;;;;;;;;;;;;;;;;;;4894622;29;19923;-60
2022/07/01 04:26:31;;;;;;;;;;;;;;;;;;4904312;29;19930;-60
2022/07/01 04:28:56;;;;;;;;;;;;;;;;;;4925694;28;20030;-60
2022/07/01 04:31:22;;;;;;;;;;;;;;;;;;4892484;29;19923;-59
2022/07/01 04:33:48;;;;;;;;;;;;;;;;;;4895479;29;19948;-59
2022/07/01 04:36:15;;;;;;;;;;;;;;;;;;4903354;29;19923;-59
2022/07/01 04:38:41;;;;;;;;;;;;;;;;;;4890922;29;19930;-61
2022/07/01 04:43:50;;;;;;;;;;;;;;;;;;4893166;29;20294;-59
2022/07/01 04:46:16;;;;;;;;;;;;;;;;;;4890984;29;19966;-60
2022/07/01 04:48:42;;;;;;;;;;;;;;;;;;4892062;28;19956;-58
2022/07/01 04:51:07;;;;;;;;;;;;;;;;;;4886759;29;19927;-59
2022/07/01 04:53:37;;;;;;;;;;;;;;;;;;4889574;29;20279;-59
2022/07/01 04:56:03;;;;;;;;;;;;;;;;;;4915421;28;20336;-59
2022/07/01 04:58:30;;;;;;;;;;;;;;;;;;4884247;29;19926;-59
2022/07/01 05:00:56;;;;;;;;;;;;;;;;;;4889651;29;19927;-59
2022/07/01 05:03:24;;;;;;;;;;;;;;;;;;4919912;28;22031;-59
2022/07/01 05:05:49;;;;;;;;;;;;;;;;;;4890779;29;20092;-59
2022/07/01 05:08:14;;;;;;;;;;;;;;;;;;4892726;29;20446;-58
2022/07/01 05:10:40;;;;;;;;;;;;;;;;;;4890640;29;20026;-60
2022/07/01 05:13:07;;;;;;;;;;;;;;;;;;4918299;28;20026;-60
2022/07/01 05:15:32;;;;;;;;;;;;;;;;;;4889385;29;19923;-61
2022/07/01 05:23:30;;;;;;;;;;;;;;;;;;4883816;29;19934;-59
2022/07/01 05:25:55;;;;;;;;;;;;;;;;;;4882491;29;19923;-60
2022/07/01 05:28:23;;;;;;;;;;;;;;;;;;4884447;29;19931;-59
2022/07/01 05:30:49;;;;;;;;;;;;;;;;;;4886759;29;19927;-60
2022/07/01 05:33:14;;;;;;;;;;;;;;;;;;4886248;29;19923;-59
2022/07/01 05:35:42;;;;;;;;;;;;;;;;;;4885752;29;20115;-59
2022/07/01 05:38:12;;;;;;;;;;;;;;;;;;4912803;28;19923;-59
2022/07/01 05:40:37;;;;;;;;;;;;;;;;;;4893736;29;19919;-59
2022/07/01 05:43:05;;;;;;;;;;;;;;;;;;4891732;29;20799;-59
2022/07/01 05:45:30;;;;;;;;;;;;;;;;;;4888508;29;19925;-60
2022/07/01 05:48:14;;;;;;;;;;;;;;;;;;4916090;28;19946;-59
2022/07/01 05:50:39;;;;;;;;;;;;;;;;;;4882974;29;21970;-59
2022/07/01 05:53:04;;;;;;;;;;;;;;;;;;4915680;28;19923;-59
2022/07/01 05:55:30;;;;;;;;;;;;;;;;;;4912458;28;19930;-60
2022/07/01 05:58:01;;;;;;;;;;;;;;;;;;4914226;28;20013;-59
2022/07/01 06:00:29;;;;;;;;;;;;;;;;;;4889809;29;20822;-60
2022/07/01 06:02:56;;;;;;;;;;;;;;;;;;4887594;29;19927;-59
2022/07/01 06:05:22;;;;;;;;;;;;;;;;;;4888386;29;19923;-59
2022/07/01 06:07:49;;;;;;;;;;;;;;;;;;4881894;29;19923;-60
2022/07/01 06:10:15;;;;;;;;;;;;;;;;;;4891899;29;20248;-60
2022/07/01 06:12:41;;;;;;;;;;;;;;;;;;4885309;29;20010;-61
2022/07/01 06:15:08;;;;;;;;;;;;;;;;;;4917119;28;20046;-61
2022/07/01 06:17:34;;;;;;;;;;;;;;;;;;4889670;29;19991;-58
2022/07/01 06:20:02;;;;;;;;;;;;;;;;;;4888009;29;20440;-60
2022/07/01 06:22:29;;;;;;;;;;;;;;;;;;4914214;28;20030;-60
2022/07/01 06:24:55;;;;;;;;;;;;;;;;;;4884777;29;19981;-60
2022/07/01 06:27:20;;;;;;;;;;;;;;;;;;4881956;29;19919;-61
2022/07/01 06:29:45;;;;;;;;;;;;;;;;;;4915158;28;19929;-60
2022/07/01 06:32:13;;;;;;;;;;;;;;;;;;4887311;29;19957;-62
2022/07/01 06:34:39;;;;;;;;;;;;;;;;;;4884942;29;20170;-62
2022/07/01 06:37:04;;;;;;;;;;;;;;;;;;4896905;29;21475;-61
2022/07/01 06:39:32;;;;;;;;;;;;;;;;;;4884245;29;19919;-60
2022/07/01 06:41:57;;;;;;;;;;;;;;;;;;4889483;29;19983;-61
2022/07/01 06:44:24;;;;;;;;;;;;;;;;;;4895236;29;19927;-60
2022/07/01 06:46:50;;;;;;;;;;;;;;;;;;4889665;29;20003;-60
2022/07/01 06:49:16;;;;;;;;;;;;;;;;;;4893453;29;19930;-61
2022/07/01 06:51:44;;;;;;;;;;;;;;;;;;4902589;29;20344;-60
2022/07/01 06:54:11;;;;;;;;;;;;;;;;;;4889094;29;20057;-62
2022/07/01 06:56:39;;;;;;;;;;;;;;;;;;4884995;29;19923;-60
2022/07/01 06:59:07;;;;;;;;;;;;;;;;;;4887941;29;20745;-62
2022/07/01 07:01:32;;;;;;;;;;;;;;;;;;4894920;29;20321;-61
2022/07/01 07:03:58;;;;;;;;;;;;;;;;;;4895750;29;20697;-62
2022/07/01 07:06:26;;;;;;;;;;;;;;;;;;4892974;29;19919;-60
2022/07/01 07:08:52;;;;;;;;;;;;;;;;;;4896577;29;19967;-61
2022/07/01 07:11:19;;;;;;;;;;;;;;;;;;4906698;29;20749;-61
2022/07/01 07:13:47;;;;;;;;;;;;;;;;;;4925065;28;20343;-61
2022/07/01 07:16:12;;;;;;;;;;;;;;;;;;4897474;29;19927;-64
2022/07/01 07:18:37;;;;;;;;;;;;;;;;;;4924116;28;20576;-60
2022/07/01 07:21:03;;;;;;;;;;;;;;;;;;4895040;29;19927;-60
2022/07/01 07:23:28;;;;;;;;;;;;;;;;;;4906578;29;19929;-61
2022/07/01 07:25:56;;;;;;;;;;;;;;;;;;4893865;29;20051;-60
2022/07/01 07:28:22;;;;;;;;;;;;;;;;;;4924589;28;19927;-60
2022/07/01 07:30:47;;;;;;;;;;;;;;;;;;4893793;29;20860;-63
2022/07/01 07:33:13;;;;;;;;;;;;;;;;;;4924614;28;20249;-61
2022/07/01 07:35:38;;;;;;;;;;;;;;;;;;4896030;29;19934;-61
2022/07/01 07:38:03;;;;;;;;;;;;;;;;;;4925214;28;20460;-60
2022/07/01 07:40:31;;;;;;;;;;;;;;;;;;4918067;28;19923;-60
2022/07/01 07:42:56;;;;;;;;;;;;;;;;;;4923004;28;19934;-61
2022/07/01 07:45:24;;;;;;;;;;;;;;;;;;4890775;29;19923;-61
2022/07/01 07:47:54;;;;;;;;;;;;;;;;;;4892194;29;20086;-62
2022/07/01 07:50:19;;;;;;;;;;;;;;;;;;4892321;29;19927;-61
2022/07/01 07:52:47;;;;;;;;;;;;;;;;;;4889371;29;21309;-61
2022/07/01 07:55:15;;;;;;;;;;;;;;;;;;4920322;28;19923;-59
2022/07/01 07:57:40;;;;;;;;;;;;;;;;;;4906146;29;20707;-60
2022/07/01 08:00:06;;;;;;;;;;;;;;;;;;4924184;28;19941;-62
2022/07/01 08:02:31;;;;;;;;;;;;;;;;;;4885018;29;19927;-60
2022/07/01 08:04:59;;;;;;;;;;;;;;;;;;4918977;28;19919;-60
2022/07/01 08:07:27;;;;;;;;;;;;;;;;;;4898854;29;19974;-65
2022/07/01 08:09:53;;;;;;;;;;;;;;;;;;4884903;29;20014;-60
2022/07/01 08:12:21;;;;;;;;;;;;;;;;;;4882393;29;19930;-62
2022/07/01 08:14:47;;;;;;;;;;;;;;;;;;4913701;28;20502;-62
2022/07/01 08:17:12;;;;;;;;;;;;;;;;;;4882965;29;20438;-60
2022/07/01 08:19:40;;;;;;;;;;;;;;;;;;4916376;28;19937;-60
2022/07/01 08:22:07;;;;;;;;;;;;;;;;;;4882949;29;19932;-64
2022/07/01 08:24:35;;;;;;;;;;;;;;;;;;4886366;29;19922;-60
2022/07/01 08:27:03;;;;;;;;;;;;;;;;;;4917605;28;19949;-62
2022/07/01 08:29:31;;;;;;;;;;;;;;;;;;4913445;28;19922;-62
2022/07/01 08:31:56;;;;;;;;;;;;;;;;;;4882636;29;20018;-60
2022/07/01 08:34:23;;;;;;;;;;;;;;;;;;4868753;29;20009;-61
2022/07/01 08:36:48;;;;;;;;;;;;;;;;;;4883615;29;19923;-63
2022/07/01 08:39:14;;;;;;;;;;;;;;;;;;4885517;29;19919;-64
2022/07/01 08:41:40;;;;;;;;;;;;;;;;;;4916075;28;20022;-64
2022/07/01 08:44:05;;;;;;;;;;;;;;;;;;4884319;29;19982;-60
2022/07/01 08:46:31;;;;;;;;;;;;;;;;;;4886260;29;19930;-64
2022/07/01 08:48:56;;;;;;;;;;;;;;;;;;4890770;29;20554;-62
2022/07/01 08:51:21;;;;;;;;;;;;;;;;;;4892261;29;19923;-64
2022/07/01 08:53:49;;;;;;;;;;;;;;;;;;4885376;29;19925;-62
2022/07/01 08:58:59;;;;;;;;;;;;;;;;;;4883012;29;20564;-63
2022/07/01 09:01:27;;;;;;;;;;;;;;;;;;4904179;29;19970;-64
2022/07/01 09:03:52;;;;;;;;;;;;;;;;;;4916357;28;20407;-61
2022/07/01 09:06:17;;;;;;;;;;;;;;;;;;4915789;28;19923;-61
2022/07/01 09:08:43;;;;;;;;;;;;;;;;;;4887691;29;19951;-64
2022/07/01 09:11:11;;;;;;;;;;;;;;;;;;4882028;29;19966;-61
2022/07/01 09:13:37;;;;;;;;;;;;;;;;;;4883956;29;19933;-61
2022/07/01 09:16:02;;;;;;;;;;;;;;;;;;4896999;29;20013;-62
2022/07/01 09:18:32;;;;;;;;;;;;;;;;;;4879262;29;20724;-62
2022/07/01 09:20:58;;;;;;;;;;;;;;;;;;4885309;29;19930;-62
2022/07/01 09:23:24;;;;;;;;;;;;;;;;;;4887177;28;19919;-62
2022/07/01 09:25:50;;;;;;;;;;;;;;;;;;4900549;29;19971;-60
2022/07/01 09:28:15;;;;;;;;;;;;;;;;;;4884226;29;20157;-63
2022/07/01 09:30:40;;;;;;;;;;;;;;;;;;4914498;28;19931;-63
2022/07/01 09:33:09;;;;;;;;;;;;;;;;;;4880726;29;19919;-62
2022/07/01 09:35:34;;;;;;;;;;;;;;;;;;4884238;29;19922;-63
2022/07/01 09:37:59;;;;;;;;;;;;;;;;;;4887899;29;19927;-62
2022/07/01 09:40:27;;;;;;;;;;;;;;;;;;4881826;29;19930;-60
2022/07/01 09:42:53;;;;;;;;;;;;;;;;;;4883966;29;19935;-63
2022/07/01 09:45:20;;;;;;;;;;;;;;;;;;4894100;29;20034;-61
2022/07/01 09:47:46;;;;;;;;;;;;;;;;;;4922520;28;19923;-61
2022/07/01 09:50:14;;;;;;;;;;;;;;;;;;4922299;28;19923;-62
2022/07/01 09:52:42;;;;;;;;;;;;;;;;;;4916570;28;19919;-61
2022/07/01 09:55:10;;;;;;;;;;;;;;;;;;4887017;29;19930;-61
2022/07/01 09:57:38;;;;;;;;;;;;;;;;;;4915419;28;19923;-62
2022/07/01 10:00:06;;;;;;;;;;;;;;;;;;4882859;29;19923;-62
2022/07/01 10:02:31;;;;;;;;;;;;;;;;;;4914947;28;20564;-62
2022/07/01 10:04:59;;;;;;;;;;;;;;;;;;4914702;28;19930;-62
2022/07/01 10:07:28;;;;;;;;;;;;;;;;;;4882957;29;19962;-63
2022/07/01 10:09:56;;;;;;;;;;;;;;;;;;4915881;28;19923;-62
2022/07/01 10:12:21;;;;;;;;;;;;;;;;;;4912977;28;19931;-63
2022/07/01 10:14:46;;;;;;;;;;;;;;;;;;4910500;28;22054;-62
2022/07/01 10:17:12;;;;;;;;;;;;;;;;;;4914128;28;19924;-61
2022/07/01 10:19:40;;;;;;;;;;;;;;;;;;4917694;28;20500;-63
2022/07/01 10:22:08;;;;;;;;;;;;;;;;;;4901375;29;19930;-62
2022/07/01 10:24:33;;;;;;;;;;;;;;;;;;4886373;29;19923;-63
2022/07/01 10:26:59;;;;;;;;;;;;;;;;;;4882719;29;19970;-62
2022/07/01 10:29:25;;;;;;;;;;;;;;;;;;4886527;29;20082;-63
2022/07/01 10:31:50;;;;;;;;;;;;;;;;;;4916038;28;20145;-61
2022/07/01 10:34:15;;;;;;;;;;;;;;;;;;4915636;28;19919;-62
2022/07/01 10:36:41;;;;;;;;;;;;;;;;;;4912311;28;19919;-63
2022/07/01 10:39:09;;;;;;;;;;;;;;;;;;4887086;29;19923;-62
2022/07/01 10:44:19;;;;;;;;;;;;;;;;;;4886544;28;20449;-63
2022/07/01 10:46:44;;;;;;;;;;;;;;;;;;4889356;29;19923;-64
2022/07/01 10:49:12;;;;;;;;;;;;;;;;;;4904909;29;19982;-64
2022/07/01 10:51:40;;;;;;;;;;;;;;;;;;4893757;29;19990;-61
2022/07/01 10:54:05;;;;;;;;;;;;;;;;;;4886119;29;19962;-63
2022/07/01 10:56:30;;;;;;;;;;;;;;;;;;4888535;29;20022;-63
2022/07/01 10:58:59;;;;;;;;;;;;;;;;;;4883649;29;20236;-62
2022/07/01 11:01:24;;;;;;;;;;;;;;;;;;4887899;29;20177;-61
2022/07/01 11:03:52;;;;;;;;;;;;;;;;;;4884436;29;20379;-63
2022/07/01 11:06:20;;;;;;;;;;;;;;;;;;4884714;29;19923;-61
2022/07/01 11:08:45;;;;;;;;;;;;;;;;;;4902839;29;21908;-60
2022/07/01 11:11:12;;;;;;;;;;;;;;;;;;4887015;29;20783;-62
2022/07/01 11:13:40;;;;;;;;;;;;;;;;;;4887944;29;21379;-64
2022/07/01 11:16:05;;;;;;;;;;;;;;;;;;4890955;29;20387;-59
2022/07/01 11:18:33;;;;;;;;;;;;;;;;;;4912880;28;19935;-63
2022/07/01 11:21:02;;;;;;;;;;;;;;;;;;4886552;29;19927;-63
2022/07/01 11:23:27;;;;;;;;;;;;;;;;;;4917610;28;19930;-61
2022/07/01 11:25:53;;;;;;;;;;;;;;;;;;4888884;29;19923;-60
2022/07/01 11:28:22;;;;;;;;;;;;;;;;;;4916802;28;19934;-61
2022/07/01 11:30:50;;;;;;;;;;;;;;;;;;4886452;29;19923;-64
2022/07/01 11:33:18;;;;;;;;;;;;;;;;;;4916673;28;20037;-63
2022/07/01 11:41:11;;;;;;;;;;;;;;;;;;4891766;29;21678;-62
2022/07/01 11:43:36;;;;;;;;;;;;;;;;;;4882044;29;21073;-64
2022/07/01 11:46:02;;;;;;;;;;;;;;;;;;4920803;28;19943;-63
2022/07/01 11:48:30;;;;;;;;;;;;;;;;;;4915263;28;20034;-64
2022/07/01 11:50:55;;;;;;;;;;;;;;;;;;4887446;29;20443;-63
2022/07/01 11:53:20;;;;;;;;;;;;;;;;;;4923826;28;19923;-63
2022/07/01 11:55:46;;;;;;;;;;;;;;;;;;4921002;28;19926;-62
2022/07/01 11:58:11;;;;;;;;;;;;;;;;;;4918411;28;19927;-62
2022/07/01 12:00:39;;;;;;;;;;;;;;;;;;4887226;29;19930;-62
2022/07/01 12:03:06;;;;;;;;;;;;;;;;;;4923338;28;19979;-61
2022/07/01 12:05:32;;;;;;;;;;;;;;;;;;4891633;29;19969;-61
2022/07/01 12:07:57;;;;;;;;;;;;;;;;;;4884627;29;19923;-63
2022/07/01 12:10:23;;;;;;;;;;;;;;;;;;4915218;28;19919;-63
2022/07/01 12:12:48;;;;;;;;;;;;;;;;;;4885835;29;20485;-63
2022/07/01 12:15:15;;;;;;;;;;;;;;;;;;4886498;29;20557;-60
2022/07/01 12:17:40;;;;;;;;;;;;;;;;;;4883612;29;19923;-61
2022/07/01 12:20:08;;;;;;;;;;;;;;;;;;4880451;29;20029;-60
2022/07/01 12:22:34;;;;;;;;;;;;;;;;;;4915074;28;19981;-60
2022/07/01 12:25:02;;;;;;;;;;;;;;;;;;4913060;28;19919;-61
2022/07/01 12:27:27;;;;;;;;;;;;;;;;;;4900057;29;19942;-61
2022/07/01 12:29:53;;;;;;;;;;;;;;;;;;4890604;29;19923;-61
2022/07/01 12:32:24;;;;;;;;;;;;;;;;;;4881377;29;19949;-61
2022/07/01 12:34:52;;;;;;;;;;;;;;;;;;4885207;29;19923;-62
2022/07/01 12:37:18;;;;;;;;;;;;;;;;;;4885986;29;19934;-60
2022/07/01 12:39:46;;;;;;;;;;;;;;;;;;4884433;29;20344;-60
2022/07/01 12:42:12;;;;;;;;;;;;;;;;;;4900370;29;21005;-61
2022/07/01 12:44:37;;;;;;;;;;;;;;;;;;4901543;29;19933;-61
2022/07/01 12:47:04;;;;;;;;;;;;;;;;;;4889713;29;19919;-61
2022/07/01 12:49:30;;;;;;;;;;;;;;;;;;4884702;29;20530;-59
2022/07/01 12:51:55;;;;;;;;;;;;;;;;;;4898659;29;19927;-60
2022/07/01 12:54:21;;;;;;;;;;;;;;;;;;4914550;28;20014;-59
2022/07/01 12:56:49;;;;;;;;;;;;;;;;;;4886128;29;19919;-59
2022/07/01 12:59:14;;;;;;;;;;;;;;;;;;4883605;29;19942;-61
2022/07/01 13:01:40;;;;;;;;;;;;;;;;;;4910816;28;20480;-61
2022/07/01 13:04:08;;;;;;;;;;;;;;;;;;4919180;28;19923;-61
2022/07/01 13:06:33;;;;;;;;;;;;;;;;;;4881589;29;20006;-61
2022/07/01 13:08:58;;;;;;;;;;;;;;;;;;4883722;29;19929;-60
2022/07/01 13:11:24;;;;;;;;;;;;;;;;;;4882306;29;19930;-60
2022/07/01 13:13:49;;;;;;;;;;;;;;;;;;4884670;29;20242;-61
2022/07/01 13:16:16;;;;;;;;;;;;;;;;;;4912610;28;19958;-60
2022/07/01 13:18:42;;;;;;;;;;;;;;;;;;4917834;28;20035;-60
2022/07/01 13:21:07;;;;;;;;;;;;;;;;;;4911824;28;20007;-60
2022/07/01 13:23:32;;;;;;;;;;;;;;;;;;4883472;29;20591;-61
2022/07/01 13:25:58;;;;;;;;;;;;;;;;;;4916438;28;20541;-60
2022/07/01 13:28:27;;;;;;;;;;;;;;;;;;4884201;29;19919;-59
2022/07/01 13:30:53;;;;;;;;;;;;;;;;;;4883169;29;19919;-59
2022/07/01 13:33:18;;;;;;;;;;;;;;;;;;4897806;29;20185;-61
2022/07/01 13:35:46;;;;;;;;;;;;;;;;;;4884640;29;19978;-60
2022/07/01 13:38:14;;;;;;;;;;;;;;;;;;4914419;28;20855;-58
2022/07/01 13:40:39;;;;;;;;;;;;;;;;;;4883267;29;19927;-61
2022/07/01 13:43:05;;;;;;;;;;;;;;;;;;4886881;29;20402;-60
2022/07/01 13:45:32;;;;;;;;;;;;;;;;;;4889730;29;19919;-60
2022/07/01 13:48:00;;;;;;;;;;;;;;;;;;4901685;29;20009;-59
2022/07/01 13:50:27;;;;;;;;;;;;;;;;;;4889419;29;20021;-62
2022/07/01 13:52:53;;;;;;;;;;;;;;;;;;4903400;29;20672;-62
2022/07/01 13:55:21;;;;;;;;;;;;;;;;;;4891434;29;19919;-60
2022/07/01 13:57:51;;;;;;;;;;;;;;;;;;4889752;29;22121;-60
2022/07/01 14:00:20;;;;;;;;;;;;;;;;;;4892009;29;19923;-62
2022/07/01 14:02:48;;;;;;;;;;;;;;;;;;4891018;29;19933;-60
2022/07/01 14:05:16;;;;;;;;;;;;;;;;;;4893463;29;20045;-60
2022/07/01 14:07:41;;;;;;;;;;;;;;;;;;4892687;29;19975;-60
2022/07/01 14:10:10;;;;;;;;;;;;;;;;;;4892169;29;19934;-62
2022/07/01 14:12:35;;;;;;;;;;;;;;;;;;4923142;28;19923;-59
2022/07/01 14:15:00;;;;;;;;;;;;;;;;;;4922262;28;20442;-60
2022/07/01 14:17:26;;;;;;;;;;;;;;;;;;4892350;29;19975;-60
2022/07/01 14:19:51;;;;;;;;;;;;;;;;;;4892468;29;19919;-62
2022/07/01 14:22:16;;;;;;;;;;;;;;;;;;4890083;29;19938;-61
2022/07/01 14:24:42;;;;;;;;;;;;;;;;;;4902102;29;19954;-58
2022/07/01 14:27:07;;;;;;;;;;;;;;;;;;4905535;29;20674;-62
2022/07/01 14:29:35;;;;;;;;;;;;;;;;;;4923024;28;19919;-61
2022/07/01 14:32:00;;;;;;;;;;;;;;;;;;4892478;29;19934;-60
2022/07/01 14:34:25;;;;;;;;;;;;;;;;;;4917196;28;19938;-61
2022/07/01 14:36:53;;;;;;;;;;;;;;;;;;4922829;28;20559;-59
2022/07/01 14:39:21;;;;;;;;;;;;;;;;;;4888769;29;19923;-58
2022/07/01 14:41:49;;;;;;;;;;;;;;;;;;4887724;29;19986;-61
2022/07/01 14:44:14;;;;;;;;;;;;;;;;;;4888449;29;19959;-60
2022/07/01 14:46:39;;;;;;;;;;;;;;;;;;4889659;29;20014;-62
2022/07/01 14:49:04;;;;;;;;;;;;;;;;;;4902365;29;19927;-62
2022/07/01 14:51:30;;;;;;;;;;;;;;;;;;4886663;29;19923;-62
2022/07/01 14:53:55;;;;;;;;;;;;;;;;;;4922421;28;19978;-61
2022/07/01 14:56:23;;;;;;;;;;;;;;;;;;4887724;29;20014;-60
2022/07/01 14:58:49;;;;;;;;;;;;;;;;;;4886758;29;19934;-61
2022/07/01 15:01:16;;;;;;;;;;;;;;;;;;4884025;29;19962;-62
2022/07/01 15:03:41;;;;;;;;;;;;;;;;;;4891432;29;19923;-62
2022/07/01 15:06:10;;;;;;;;;;;;;;;;;;4893783;29;19919;-61
2022/07/01 15:08:38;;;;;;;;;;;;;;;;;;4898133;29;19975;-59
2022/07/01 15:11:03;;;;;;;;;;;;;;;;;;4885686;29;21451;-58
2022/07/01 15:13:29;;;;;;;;;;;;;;;;;;4903277;29;19991;-58
2022/07/01 15:15:57;;;;;;;;;;;;;;;;;;4923268;28;20762;-61
2022/07/01 15:18:23;;;;;;;;;;;;;;;;;;4891253;29;19923;-60
2022/07/01 15:20:48;;;;;;;;;;;;;;;;;;4894029;29;20026;-59
2022/07/01 15:23:16;;;;;;;;;;;;;;;;;;4892231;29;20587;-61
2022/07/01 15:25:41;;;;;;;;;;;;;;;;;;4886701;29;19947;-60
2022/07/01 15:28:06;;;;;;;;;;;;;;;;;;4879639;29;19923;-59
2022/07/01 15:30:34;;;;;;;;;;;;;;;;;;4912878;28;19989;-59
2022/07/01 15:32:59;;;;;;;;;;;;;;;;;;4886077;29;20256;-62
2022/07/01 15:35:26;;;;;;;;;;;;;;;;;;4916277;28;19927;-60
2022/07/01 15:37:54;;;;;;;;;;;;;;;;;;4920673;28;19955;-64
2022/07/01 15:40:21;;;;;;;;;;;;;;;;;;4892988;29;20866;-61
2022/07/01 15:42:52;;;;;;;;;;;;;;;;;;4887750;29;19930;-60
2022/07/01 15:45:17;;;;;;;;;;;;;;;;;;4917111;28;20816;-62
2022/07/01 15:50:29;;;;;;;;;;;;;;;;;;4919291;28;20011;-62
2022/07/01 15:52:56;;;;;;;;;;;;;;;;;;4920620;28;19919;-59
2022/07/01 15:55:25;;;;;;;;;;;;;;;;;;4886989;29;19954;-62
2022/07/01 15:57:52;;;;;;;;;;;;;;;;;;4884119;29;20053;-62
2022/07/01 16:00:19;;;;;;;;;;;;;;;;;;4887909;29;20804;-60
2022/07/01 16:02:44;;;;;;;;;;;;;;;;;;4869635;29;20072;-61
2022/07/01 16:05:12;;;;;;;;;;;;;;;;;;4889680;29;22039;-67
2022/07/01 16:07:37;;;;;;;;;;;;;;;;;;4922606;28;19923;-63
2022/07/01 16:10:05;;;;;;;;;;;;;;;;;;4883123;29;20561;-62
2022/07/01 16:12:31;;;;;;;;;;;;;;;;;;4918710;28;20007;-63
2022/07/01 16:14:56;;;;;;;;;;;;;;;;;;4883217;29;19958;-63
2022/07/01 16:17:21;;;;;;;;;;;;;;;;;;4882609;29;19919;-65
2022/07/01 16:19:46;;;;;;;;;;;;;;;;;;4914289;28;19919;-63
2022/07/01 16:22:14;;;;;;;;;;;;;;;;;;4896957;29;19927;-65
2022/07/01 16:24:40;;;;;;;;;;;;;;;;;;4914888;28;19982;-62
2022/07/01 16:27:05;;;;;;;;;;;;;;;;;;4882557;29;20033;-62
2022/07/01 16:29:31;;;;;;;;;;;;;;;;;;4888207;29;19931;-60
2022/07/01 16:32:02;;;;;;;;;;;;;;;;;;4886782;29;19923;-60
2022/07/01 16:34:29;;;;;;;;;;;;;;;;;;4921741;28;19923;-61
2022/07/01 16:36:55;;;;;;;;;;;;;;;;;;4888209;29;19981;-61
2022/07/01 16:39:22;;;;;;;;;;;;;;;;;;4885060;29;19991;-60
2022/07/01 16:41:50;;;;;;;;;;;;;;;;;;4882749;29;19985;-67
2022/07/01 16:44:16;;;;;;;;;;;;;;;;;;4888835;29;19947;-63
2022/07/01 16:46:44;;;;;;;;;;;;;;;;;;4912928;28;19919;-59
2022/07/01 16:49:10;;;;;;;;;;;;;;;;;;4899769;29;19927;-61
2022/07/01 16:51:35;;;;;;;;;;;;;;;;;;4915770;28;19919;-65
2022/07/01 16:54:03;;;;;;;;;;;;;;;;;;4887340;29;19922;-64
2022/07/01 16:56:28;;;;;;;;;;;;;;;;;;4882606;29;19930;-64
2022/07/01 16:58:54;;;;;;;;;;;;;;;;;;4883891;29;19927;-65
2022/07/01 17:01:19;;;;;;;;;;;;;;;;;;4914684;28;19931;-63
2022/07/01 17:03:47;;;;;;;;;;;;;;;;;;4887689;29;20248;-64
2022/07/01 17:06:12;;;;;;;;;;;;;;;;;;4901558;29;20407;-65